Data for 08/27/2008

Time Sea-Level Adjusted Pressure Absolute Pressure Temperature Relative Humidity Dew Point   
(mb) (inHg) (mb) (inHg) (C) (F) (%) (C) (F)
00:05 1018 30.06 847 25.01 9.1 48.3 33 -6.2 20.9
00:10 1018 30.06 847 25.01 9.5 49.1 34 -5.7 21.7
00:15 1018 30.06 847 25.01 9 48.2 33 -6.3 20.6
00:20 1018 30.06 847 25.01 9 48.2 35 -5.8 21.5
00:25 1018 30.06 847 25.01 9 48.2 32 -6.8 19.8
00:30 1018 30.06 847 25.01 9.3 48.8 35 -5.2 22.6
00:35 1017 30.03 847 25.01 8.8 47.9 36 -5.6 22
00:40 1017 30.03 847 25.01 8.6 47.5 35 -6 21.2
00:45 1017 30.03 847 25.01 8.8 47.8 33 -6.5 20.4
00:50 1017 30.03 847 25.01 9 48.2 34 -6.2 20.9
00:55 1017 30.03 846 24.98 9.2 48.5 32 -6.5 20.3
01:00 1017 30.03 847 25.01 9 48.2 33 -6.3 20.6
01:05 1017 30.03 846 24.98 9 48.3 33 -6.4 20.6
01:10 1017 30.03 846 24.98 9 48.3 35 -5.7 21.7
01:15 1017 30.03 846 24.98 8.6 47.4 36 -5.6 22
01:20 1017 30.03 846 24.98 8.5 47.3 37 -5.5 22.2
01:25 1017 30.03 846 24.98 8.5 47.3 37 -5.3 22.4
01:30 1017 30.03 846 24.98 8.2 46.7 39 -4.9 23.1
01:35 1017 30.03 846 24.98 8 46.5 39 -5 22.9
01:40 1017 30.03 846 24.98 8.1 46.5 37 -5.7 21.7
01:45 1017 30.03 846 24.98 8.5 47.2 36 -5.8 21.5
01:50 1017 30.03 846 24.98 8.8 47.8 34 -6.4 20.5
01:55 1017 30.03 846 24.98 9 48.2 33 -6.2 20.8
02:00 1017 30.03 846 24.98 9.2 48.5 34 -5.8 21.5
02:05 1017 30.03 846 24.98 9.1 48.3 35 -5.8 21.6
02:10 1017 30.03 846 24.98 9 48.2 35 -5.6 22
02:15 1016 30 846 24.98 8.9 48 36 -5.3 22.5
02:20 1016 30 846 24.98 8.8 47.8 36 -5.4 22.2
02:25 1016 30 846 24.98 8.7 47.7 35 -5.9 21.4
02:30 1016 30 846 24.98 8.8 47.8 38 -4.8 23.3
02:35 1016 30 845 24.95 8.5 47.4 33 -6.7 19.9
02:40 1016 30 845 24.95 9.5 49 33 -6.1 21
02:45 1016 30 845 24.95 9.2 48.5 35 -5.5 22.1
02:50 1016 30 845 24.95 8.8 47.9 36 -5.3 22.5
02:55 1016 30 845 24.95 8.6 47.5 36 -5.5 22.1
03:00 1016 30 845 24.95 8.6 47.6 36 -5.6 21.9
03:05 1016 30 845 24.95 8.7 47.7 36 -5.6 21.9
03:10 1016 30 845 24.95 8.8 47.8 35 -5.7 21.8
03:15 1016 30 845 24.95 8.9 48 35 -5.8 21.5
03:20 1016 30 845 24.95 9.1 48.4 40 -3.9 24.9
03:25 1016 30 845 24.95 8.9 48 40 -4 24.8
03:30 1016 30 845 24.95 8.9 48 38 -4.7 23.5
03:35 1016 30 845 24.95 9.2 48.6 38 -4.5 23.9
03:40 1016 30 845 24.95 9.3 48.7 34 -5.7 21.7
03:45 1016 30 845 24.95 9 48.3 41 -3.5 25.6
03:50 1016 30 845 24.95 8.6 47.4 42 -3.6 25.5
03:55 1016 30 845 24.95 8.4 47.1 42 -3.7 25.3
04:00 1016 30 845 24.95 8.3 47 43 -3.5 25.8
04:05 1015 29.97 845 24.95 7.7 45.9 45 -3.4 25.8
04:10 1015 29.97 845 24.95 7.5 45.5 47 -3.2 26.3
04:15 1015 29.97 845 24.95 7.3 45.1 45 -3.8 25.1
04:20 1015 29.97 845 24.95 7.3 45.1 45 -3.8 25.2
04:25 1015 29.97 844 24.92 7.5 45.4 42 -4.6 23.7
04:30 1015 29.97 844 24.92 7.5 45.5 47 -3.2 26.3
04:35 1015 29.97 844 24.92 7.2 44.9 45 -3.8 25.1
04:40 1015 29.97 844 24.92 7.4 45.3 42 -4.7 23.6
04:45 1015 29.97 844 24.92 7.7 45.9 40 -5.1 22.8
04:50 1015 29.97 844 24.92 7.8 46 44 -3.8 25.2
04:55 1015 29.97 844 24.92 7.3 45.1 43 -4.3 24.2
05:00 1015 29.97 844 24.92 7.4 45.3 39 -5.8 21.6
05:05 1015 29.97 844 24.92 7.7 45.9 44 -3.7 25.4
05:10 1015 29.97 844 24.92 7.2 44.9 45 -3.8 25.1
05:15 1015 29.97 844 24.92 7.2 45 40 -5.6 21.9
05:20 1015 29.97 844 24.92 7.4 45.3 40 -5.3 22.4
05:25 1015 29.97 844 24.92 7.4 45.4 41 -5.1 22.8
05:30 1015 29.97 844 24.92 7.5 45.5 40 -5.4 22.4
05:35 1015 29.97 844 24.92 7.6 45.7 40 -5.3 22.5
05:40 1015 29.97 844 24.92 7.8 46 40 -5 22.9
05:45 1015 29.97 844 24.92 7.7 45.8 42 -4.6 23.8
05:50 1015 29.97 844 24.92 7.5 45.4 42 -4.5 23.9
05:55 1015 29.97 844 24.92 7.4 45.4 43 -4.4 24
06:00 1015 29.97 844 24.92 7.5 45.6 42 -4.4 24
06:05 1015 29.97 844 24.92 7.5 45.6 42 -4.6 23.7
06:10 1015 29.97 844 24.92 7.7 45.8 40 -5.2 22.7
06:15 1015 29.97 844 24.92 7.9 46.3 35 -6.7 20
06:20 1015 29.97 844 24.92 8.4 47.2 37 -5.4 22.3
06:25 1015 29.97 844 24.92 8.3 47 39 -4.9 23.3
06:30 1015 29.97 844 24.92 8.3 46.9 38 -5 22.9
06:35 1015 29.97 844 24.92 8.4 47.2 40 -4.5 24
06:40 1015 29.97 844 24.92 8.4 47 38 -5.1 22.8
06:45 1015 29.97 844 24.92 8.3 46.9 40 -4.6 23.7
06:50 1015 29.97 844 24.92 8.2 46.7 43 -3.6 25.6
06:55 1015 29.97 844 24.92 8 46.3 44 -3.7 25.4
07:00 1015 29.97 844 24.92 7.9 46.2 43 -4 24.9
07:05 1014 29.94 844 24.92 8.1 46.6 42 -4.1 24.6
07:10 1014 29.94 844 24.92 8.4 47.1 40 -4.3 24.2
07:15 1014 29.94 844 24.92 8.6 47.4 39 -4.6 23.7
07:20 1014 29.94 844 24.92 8.7 47.7 43 -3.3 26.1
07:25 1014 29.94 843 24.89 8.6 47.4 45 -2.7 27.2
07:30 1014 29.94 843 24.89 8.6 47.5 42 -3.5 25.7
07:35 1014 29.94 844 24.92 8.7 47.7 38 -4.8 23.4
07:40 1014 29.94 844 24.92 9.1 48.3 36 -5.2 22.6
07:45 1014 29.94 844 24.92 9.3 48.7 36 -5.2 22.7
07:50 1014 29.94 844 24.92 9.4 48.9 39 -3.8 25.2
07:55 1014 29.94 844 24.92 9.3 48.7 42 -2.8 26.9
08:00 1014 29.94 844 24.92 9 48.2 48 -1.5 29.4
08:05 1014 29.94 844 24.92 8.6 47.5 45 -2.5 27.4
08:10 1014 29.94 843 24.89 8.6 47.5 45 -2.5 27.5
08:15 1014 29.94 843 24.89 8.7 47.7 45 -2.6 27.3
08:20 1014 29.94 843 24.89 9 48.2 41 -3.6 25.5
08:25 1014 29.94 844 24.92 9.4 48.8 42 -2.7 27.1
08:30 1014 29.94 843 24.89 9.4 48.8 44 -2.3 27.9
08:35 1014 29.94 843 24.89 9.3 48.8 43 -2.5 27.5
08:40 1014 29.94 843 24.89 9.8 49.6 41 -2.8 27
08:45 1014 29.94 843 24.89 10.1 50.1 37 -4.1 24.7
08:50 1014 29.94 843 24.89 10.2 50.4 40 -2.7 27.2
08:55 1014 29.94 843 24.89 10.2 50.4 43 -1.7 29
09:00 1014 29.94 843 24.89 10.5 51 41 -2.1 28.2
09:05 1014 29.94 843 24.89 11.1 52 37 -2.9 26.9
09:10 1014 29.94 843 24.89 11.7 53 35 -3.1 26.4
09:15 1014 29.94 843 24.89 11.9 53.5 37 -2.4 27.7
09:20 1014 29.94 843 24.89 12.1 53.8 36 -2.4 27.7
09:25 1014 29.94 843 24.89 12.3 54.2 38 -1.4 29.5
09:30 1014 29.94 843 24.89 12.7 54.8 43 0.6 33.1
09:35 1014 29.94 843 24.89 12.6 54.7 42 0.2 32.3
09:40 1014 29.94 843 24.89 12.7 54.8 40 -0.4 31.2
09:45 1014 29.94 843 24.89 12.9 55.2 40 -0.4 31.3
09:50 1014 29.94 843 24.89 13.1 55.6 37 -1.2 29.9
09:55 1013 29.91 843 24.89 13.8 56.8 32 -2.5 27.5
10:00 1013 29.91 843 24.89 15.7 60.3 20 -7 19.4
10:05 1013 29.91 843 24.89 17.2 63 19 -6.3 20.6
10:10 1013 29.91 843 24.89 17.5 63.5 20 -5.9 21.4
10:15 1013 29.91 843 24.89 17.5 63.5 20 -5.6 21.9
10:20 1013 29.91 842 24.86 17.5 63.5 20 -5.9 21.4
10:25 1013 29.91 842 24.86 17.5 63.5 20 -5.5 22
10:30 1013 29.91 842 24.86 17.6 63.8 20 -5.6 21.9
10:35 1013 29.91 842 24.86 17.8 64 20 -5.1 22.9
10:40 1013 29.91 842 24.86 17.8 64 21 -4.7 23.5
10:45 1013 29.91 842 24.86 17.9 64.2 21 -4.7 23.6
10:50 1013 29.91 842 24.86 18 64.3 21 -4.8 23.3
10:55 1013 29.91 842 24.86 18.1 64.5 21 -4.2 24.4
11:00 1013 29.91 842 24.86 18.2 64.7 19 -5.6 22
11:05 1013 29.91 842 24.86 18.4 65 21 -4.3 24.3
11:10 1013 29.91 842 24.86 18.4 65.2 20 -4.6 23.8
11:15 1013 29.91 842 24.86 18.4 65.1 21 -4.5 23.9
11:20 1013 29.91 842 24.86 18.2 64.7 21 -4.4 24.1
11:25 1013 29.91 842 24.86 18.1 64.6 22 -3.8 25.1
11:30 1013 29.91 842 24.86 18.1 64.6 22 -3.8 25.2
11:35 1013 29.91 842 24.86 18.1 64.5 23 -3.4 25.9
11:40 1013 29.91 842 24.86 18 64.5 22 -3.9 25
11:45 1013 29.91 842 24.86 18 64.5 22 -3.6 25.5
11:50 1013 29.91 843 24.89 18.1 64.6 21 -4.4 24.1
11:55 1013 29.91 843 24.89 18.2 64.7 21 -4.3 24.3
12:00 1014 29.94 843 24.89 17.7 63.9 24 -2.9 26.8
12:05 1014 29.94 843 24.89 17 62.5 25 -2.9 26.9
12:10 1014 29.94 843 24.89 16.7 62.1 26 -3 26.6
12:15 1014 29.94 843 24.89 16.5 61.7 26 -2.8 27
12:20 1014 29.94 843 24.89 16.4 61.5 26 -2.8 26.9
12:25 1014 29.94 843 24.89 16.4 61.5 26 -3.1 26.4
12:30 1014 29.94 843 24.89 16.3 61.4 26 -3.1 26.4
12:35 1014 29.94 843 24.89 16.3 61.4 26 -3.1 26.5
12:40 1014 29.94 843 24.89 16.3 61.4 26 -3.1 26.5
12:45 1014 29.94 843 24.89 16.4 61.5 24 -4.1 24.5
12:50 1014 29.94 843 24.89 16.1 61 25 -3.6 25.5
12:55 1014 29.94 843 24.89 15.9 60.7 25 -4 24.8
13:00 1014 29.94 843 24.89 16 60.7 26 -3.7 25.4
13:05 1014 29.94 843 24.89 16.1 61.1 26 -3.3 26
13:10 1014 29.94 843 24.89 16.3 61.3 26 -3 26.7
13:15 1014 29.94 843 24.89 16.4 61.4 27 -2.4 27.6
13:20 1014 29.94 843 24.89 16.3 61.4 28 -2.2 28.1
13:25 1014 29.94 843 24.89 15.8 60.4 29 -2 28.4
13:30 1014 29.94 843 24.89 15.2 59.4 32 -1.4 29.5
13:35 1014 29.94 844 24.92 15 59 33 -1.2 29.9
13:40 1015 29.97 844 24.92 14.9 58.7 36 0.2 32.3
13:45 1015 29.97 844 24.92 14.5 58.2 42 1.9 35.5
13:50 1015 29.97 844 24.92 14.2 57.5 46 2.9 37.1
13:55 1015 29.97 844 24.92 13.8 56.8 45 2.1 35.8
14:00 1015 29.97 844 24.92 13.4 56.1 46 2 35.6
14:05 1015 29.97 844 24.92 13.2 55.8 49 2.7 36.9
14:10 1015 29.97 844 24.92 13.4 56 48 2.6 36.6
14:15 1015 29.97 845 24.95 13.4 56.1 48 2.6 36.7
14:20 1016 30 845 24.95 13.4 56 47 2.5 36.4
14:25 1016 30 845 24.95 13.5 56.3 48 2.7 36.9
14:30 1016 30 845 24.95 13.2 55.7 49 2.8 37
14:35 1016 30 845 24.95 13.1 55.5 49 2.5 36.6
14:40 1016 30 845 24.95 13.3 56 44 1.5 34.7
14:45 1016 30 845 24.95 13.6 56.4 44 1.7 35.1
14:50 1016 30 845 24.95 13.6 56.5 46 2.2 35.9
14:55 1016 30 845 24.95 13.4 56.1 46 2 35.6
15:00 1016 30 845 24.95 13.4 56.1 45 1.8 35.2
15:05 1016 30 845 24.95 13.4 56.1 47 2.2 36
15:10 1016 30 845 24.95 13.4 56.1 49 3 37.4
15:15 1016 30 845 24.95 13.5 56.2 44 1.6 34.9
15:20 1016 30 845 24.95 13.6 56.4 48 2.9 37.1
15:25 1016 30 845 24.95 13.7 56.7 45 2.2 36
15:30 1016 30 845 24.95 13.8 56.9 45 2.2 35.9
15:35 1016 30 845 24.95 14 57.2 41 1.2 34.2
15:40 1016 30 845 24.95 14.1 57.4 42 1.6 34.8
15:45 1016 30 845 24.95 14.3 57.8 46 2.9 37.1
15:50 1016 30 845 24.95 14.7 58.5 46 3.3 37.9
15:55 1016 30 845 24.95 15 59 40 1.6 34.9
16:00 1016 30 845 24.95 15.3 59.5 37 0.7 33.2
16:05 1016 30 845 24.95 15.8 60.5 34 0.1 32.2
16:10 1016 30 845 24.95 16.4 61.5 34 0.4 32.8
16:15 1016 30 845 24.95 16.6 61.9 35 1.3 34.3
16:20 1016 30 845 24.95 16.6 61.8 35 1.1 34
16:25 1016 30 845 24.95 16.4 61.6 34 0.6 33.1
16:30 1016 30 845 24.95 17.1 62.7 33 0.9 33.6
16:35 1016 30 845 24.95 17 62.7 33 0.7 33.3
16:40 1016 30 845 24.95 17.3 63.1 32 0.7 33.2
16:45 1016 30 845 24.95 17.6 63.7 34 1.5 34.8
16:50 1016 30 845 24.95 17.3 63.2 33 1.2 34.1
16:55 1016 30 845 24.95 17.2 62.9 35 1.8 35.3
17:00 1016 30 845 24.95 17.3 63.1 33 1.1 34
17:05 1016 30 845 24.95 17.4 63.3 33 1 33.8
17:10 1016 30 845 24.95 17.5 63.4 33 1.1 33.9
17:15 1016 30 845 24.95 17.4 63.3 34 1.4 34.5
17:20 1016 30 845 24.95 17.4 63.3 34 1.3 34.4
17:25 1016 30 845 24.95 17.6 63.6 34 1.6 34.9
17:30 1016 30 845 24.95 17.5 63.6 35 2 35.5
17:35 1016 30 845 24.95 17.6 63.6 33 1.4 34.5
17:40 1016 30 845 24.95 17.7 63.8 33 1.4 34.5
17:45 1016 30 845 24.95 17.5 63.6 35 2.2 36
17:50 1016 30 845 24.95 17.6 63.6 35 2 35.6
17:55 1016 30 845 24.95 17.2 63 34 1.5 34.7
18:00 1016 30 845 24.95 17.1 62.8 40 3.5 38.3
18:05 1016 30 845 24.95 16.6 61.9 40 3 37.5
18:10 1016 30 845 24.95 16.4 61.4 40 2.8 37
18:15 1016 30 845 24.95 16.4 61.4 40 3 37.3
18:20 1016 30 845 24.95 16.3 61.3 39 2.6 36.6
18:25 1016 30 845 24.95 16.2 61.1 41 2.9 37.2
18:30 1016 30 845 24.95 16.2 61.1 42 3.2 37.8
18:35 1016 30 845 24.95 16.4 61.5 42 3.7 38.7
18:40 1016 30 845 24.95 16.5 61.7 39 2.5 36.4
18:45 1016 30 845 24.95 16.6 61.9 38 2.3 36.1
18:50 1016 30 845 24.95 16.6 61.9 38 2.3 36.2
18:55 1016 30 846 24.98 16.6 61.8 38 2.4 36.3
19:00 1016 30 846 24.98 16.6 61.8 38 2.4 36.2
19:05 1016 30 846 24.98 16.4 61.5 38 2.2 35.9
19:10 1016 30 846 24.98 16.3 61.4 41 3 37.4
19:15 1016 30 846 24.98 16.3 61.4 40 2.6 36.7
19:20 1016 30 846 24.98 16.4 61.4 38 2.2 35.9
19:25 1016 30 846 24.98 16.3 61.4 38 2.2 36
19:30 1017 30.03 846 24.98 16.5 61.7 38 2.4 36.3
19:35 1017 30.03 846 24.98 16.6 61.9 39 2.9 37.2
19:40 1017 30.03 846 24.98 16.6 61.9 40 3 37.4
19:45 1017 30.03 846 24.98 16.3 61.4 42 3.5 38.2
19:50 1017 30.03 846 24.98 16.1 61 42 3.5 38.2
19:55 1017 30.03 846 24.98 16 60.8 41 3 37.3
20:00 1017 30.03 846 24.98 16.1 60.9 43 3.5 38.2
20:05 1017 30.03 846 24.98 15.9 60.5 44 3.6 38.6
20:10 1017 30.03 846 24.98 15.6 60.1 44 3.5 38.2
20:15 1017 30.03 847 25.01 15.5 59.8 44 3.3 38
20:20 1017 30.03 847 25.01 15.3 59.5 41 2.3 36.2
20:25 1018 30.06 847 25.01 15.3 59.5 42 2.6 36.6
20:30 1018 30.06 847 25.01 15.1 59.2 40 1.8 35.2
20:35 1018 30.06 847 25.01 15.1 59.1 40 1.6 34.9
20:40 1018 30.06 847 25.01 15 58.9 39 1.1 34.1
20:45 1018 30.06 847 25.01 14.9 58.8 40 1.3 34.4
20:50 1018 30.06 847 25.01 14.7 58.5 40 1.2 34.2
20:55 1018 30.06 848 25.04 14.2 57.6 41 1.2 34.1
21:00 1018 30.06 848 25.04 13.9 57 41 0.8 33.5
21:05 1019 30.09 848 25.04 13.7 56.6 40 0.6 33
21:10 1019 30.09 848 25.04 13.8 56.9 41 0.8 33.5
21:15 1019 30.09 848 25.04 13.9 56.9 41 1 33.8
21:20 1019 30.09 848 25.04 13.7 56.6 43 1.5 34.7
21:25 1019 30.09 848 25.04 13.4 56.1 44 1.5 34.8
21:30 1019 30.09 848 25.04 13.3 55.9 45 1.7 35.1
21:35 1019 30.09 848 25.04 13.2 55.8 48 2.4 36.4
21:40 1019 30.09 848 25.04 13.2 55.8 48 2.5 36.5
21:45 1019 30.09 848 25.04 13.2 55.7 48 2.5 36.4
21:50 1019 30.09 848 25.04 13.3 55.9 46 2.1 35.8
21:55 1019 30.09 848 25.04 13.4 56.2 47 2.3 36.2
22:00 1019 30.09 848 25.04 13.4 56.1 47 2.4 36.3
22:05 1019 30.09 849 25.07 13.3 56 45 1.8 35.3
22:10 1019 30.09 849 25.07 13.4 56.2 44 1.5 34.6
22:15 1019 30.09 849 25.07 13.6 56.4 43 1.2 34.2
22:20 1019 30.09 849 25.07 13.5 56.3 41 0.5 32.8
22:25 1019 30.09 848 25.04 13.5 56.4 41 0.6 33
22:30 1019 30.09 848 25.04 13.5 56.3 42 0.8 33.5
22:35 1019 30.09 848 25.04 13.6 56.5 40 0.2 32.4
22:40 1019 30.09 848 25.04 13.9 56.9 40 0.5 32.8
22:45 1019 30.09 848 25.04 14 57.2 37 -0.3 31.4
22:50 1019 30.09 848 25.04 13.9 57 38 -0.2 31.7
22:55 1019 30.09 849 25.07 13.7 56.6 37 -0.5 31
23:00 1019 30.09 849 25.07 13.5 56.4 38 -0.6 31
23:05 1019 30.09 849 25.07 13.4 56.1 39 -0.3 31.5
23:10 1020 30.12 849 25.07 13.2 55.7 39 -0.3 31.4
23:15 1020 30.12 849 25.07 13 55.5 41 0.1 32.2
23:20 1020 30.12 849 25.07 12.6 54.7 43 0.5 32.8
23:25 1020 30.12 849 25.07 12.4 54.4 43 0.3 32.6
23:30 1020 30.12 849 25.07 12.7 54.8 41 -0.2 31.6
23:35 1020 30.12 849 25.07 13 55.3 40 -0.1 31.8
23:40 1020 30.12 849 25.07 13 55.5 41 0.2 32.4
23:45 1020 30.12 849 25.07 12.9 55.1 43 0.5 32.9
23:50 1020 30.12 849 25.07 12.6 54.6 43 0.5 33
23:55 1020 30.12 849 25.07 12.6 54.6 43 0.3 32.5
24:00 1020 30.12 849 25.07 12.5 54.6 43 0.3 32.5